Terminal Aerodrome Forecast
Issued by NWS

Home | Current Version | Previous Version | Text Only | Print | Product List | Glossary Off
Versions: 1 2 3 4 5 6 7 8 9 10 11 12 13 14 15 16 17

000
FTUS43 KICT 202322
TAFCNU
TAF
KCNU 202322Z 2100/2124 02007KT P6SM SCT200
     FM210700 05007KT P6SM VCTS SCT030 BKN070CB
     FM210900 06011KT 6SM SHRA VCTS BKN035CB
     FM211500 06013G20KT 5SM SHRA VCTS OVC020CB
     FM211800 07014G20KT 5SM SHRA OVC015=

USA.gov is the U.S. government's official web portal to all federal, state and local government web resources and services.